createdAt,value
2024-01-11T00:00:48.205Z,99921.84
2024-01-11T00:03:15.151Z,99920.16
2024-01-11T00:05:43.211Z,99929.16
2024-01-11T00:08:10.002Z,99928.31
2024-01-11T00:10:37.295Z,99927.63
2024-01-11T00:13:05.160Z,99931.97
2024-01-11T00:15:31.930Z,99940.81
2024-01-11T00:17:58.867Z,99932.81
2024-01-11T00:20:25.658Z,99928.47
2024-01-11T00:22:52.457Z,99926.91
2024-01-11T00:25:19.240Z,99932.38
2024-01-11T00:27:45.933Z,99923.66
2024-01-11T00:30:12.691Z,99922.97
2024-01-11T00:32:39.570Z,99935.59
2024-01-11T00:35:07.169Z,99932.22
2024-01-11T00:37:33.917Z,99928.84
2024-01-11T00:40:00.598Z,99931.53
2024-01-11T00:42:27.274Z,99935.19
2024-01-11T00:44:54.201Z,99941.50
2024-01-11T00:47:20.948Z,99943.47
2024-01-11T00:49:47.692Z,99935.59
2024-01-11T00:52:15.186Z,99942.03
2024-01-11T00:54:42.118Z,99947.66
2024-01-11T00:57:08.884Z,99946.25
2024-01-11T00:59:35.668Z,99944.81
2024-01-11T01:02:02.485Z,99946.78
2024-01-11T01:04:29.200Z,99935.41
2024-01-11T01:06:55.846Z,99937.34
2024-01-11T01:09:22.523Z,99942.13
2024-01-11T01:11:49.265Z,99942.13
2024-01-11T01:14:16.090Z,99942.41
2024-01-11T01:16:42.994Z,99941.69
2024-01-11T01:19:09.904Z,99949.81
2024-01-11T01:21:36.721Z,99949.97
2024-01-11T01:24:03.950Z,99944.75
2024-01-11T01:26:30.705Z,99950.09
2024-01-11T01:28:57.502Z,99945.88
2024-01-11T01:31:24.220Z,99951.22
2024-01-11T01:33:50.943Z,99961.03
2024-01-11T01:36:17.809Z,99955.69
2024-01-11T01:38:44.713Z,99958.38
2024-01-11T01:41:11.538Z,99954.97
2024-01-11T01:43:38.326Z,99955.97
2024-01-11T01:46:06.940Z,99960.44
2024-01-11T01:48:34.312Z,99968.31
2024-01-11T01:51:01.221Z,99968.47
2024-01-11T01:53:29.876Z,99965.66
2024-01-11T01:55:57.323Z,99973.66
2024-01-11T01:58:24.234Z,99974.50
2024-01-11T02:00:52.687Z,99979.00
2024-01-11T02:03:19.876Z,99979.00
2024-01-11T02:05:47.587Z,99979.84
2024-01-11T02:08:18.774Z,99979.00
2024-01-11T02:10:47.240Z,99982.38
2024-01-11T02:13:14.481Z,99980.69
2024-01-11T02:15:43.146Z,99984.31
2024-01-11T02:18:10.019Z,99987.72
2024-01-11T02:20:36.870Z,99991.94
2024-01-11T02:23:09.194Z,99993.03
2024-01-11T02:25:36.169Z,99997.41
2024-01-11T02:28:03.008Z,99992.78
2024-01-11T02:30:29.790Z,99994.47
2024-01-11T02:32:56.908Z,99999.81
2024-01-11T02:35:25.656Z,99995.44
2024-01-11T02:37:52.810Z,100008.53
2024-01-11T02:40:20.453Z,100008.53
2024-01-11T02:42:47.482Z,100002.19
2024-01-11T02:45:14.559Z,100004.88
2024-01-11T02:47:41.846Z,100004.59
2024-01-11T02:50:09.514Z,100012.34
2024-01-11T02:52:36.628Z,100012.91
2024-01-11T02:55:03.443Z,100019.09
2024-01-11T02:57:30.373Z,100011.94
2024-01-11T02:59:57.141Z,100016.16
2024-01-11T03:02:24.011Z,100016.16
2024-01-11T03:04:50.822Z,100012.78
2024-01-11T03:07:17.614Z,100007.44
2024-01-11T03:09:44.331Z,100014.59
2024-01-11T03:12:11.055Z,100017.28
2024-01-11T03:14:37.856Z,100012.78
2024-01-11T03:17:05.980Z,100013.63
2024-01-11T03:19:32.743Z,100017.84
2024-01-11T03:21:59.529Z,100009.59
2024-01-11T03:24:26.350Z,100016.59
2024-01-11T03:26:53.049Z,100023.50
2024-01-11T03:29:19.760Z,100019.00
2024-01-11T03:31:46.648Z,100018.03
2024-01-11T03:34:13.757Z,100020.69
2024-01-11T03:36:41.383Z,100020.69
2024-01-11T03:39:08.150Z,100026.03
2024-01-11T03:41:35.129Z,100026.31
2024-01-11T03:44:02.038Z,100012.97
2024-01-11T03:46:29.051Z,100012.81
2024-01-11T03:48:57.194Z,100012.81
2024-01-11T03:51:24.025Z,100008.59
2024-01-11T03:53:50.986Z,100006.66
2024-01-11T03:56:17.841Z,100011.84
2024-01-11T03:58:46.374Z,100015.22
2024-01-11T04:01:13.278Z,100024.78
2024-01-11T04:03:40.314Z,100022.97
2024-01-11T04:06:07.728Z,100024.78
2024-01-11T04:08:34.972Z,100024.78
2024-01-11T04:11:08.138Z,100032.22
2024-01-11T04:13:34.895Z,100032.09
2024-01-11T04:16:06.263Z,100031.38
2024-01-11T04:18:33.290Z,100036.44
2024-01-11T04:21:00.190Z,100044.59
2024-01-11T04:23:27.027Z,100036.72
2024-01-11T04:25:53.757Z,100043.75
2024-01-11T04:28:20.508Z,100043.75
2024-01-11T04:30:47.378Z,100041.06
2024-01-11T04:33:14.294Z,100035.03
2024-01-11T04:35:41.235Z,100044.00
2024-01-11T04:38:07.996Z,100046.81
2024-01-11T04:40:34.726Z,100051.31
2024-01-11T04:43:01.434Z,100040.75
2024-01-11T04:45:28.089Z,100040.06
2024-01-11T04:47:55.069Z,100047.22
2024-01-11T04:50:23.118Z,100047.47
2024-01-11T04:52:50.113Z,100045.06
2024-01-11T04:55:16.805Z,100047.03
2024-01-11T04:57:43.536Z,100056.00
2024-01-11T05:00:10.601Z,100048.13
2024-01-11T05:02:37.444Z,100049.13
2024-01-11T05:05:05.018Z,100054.59
2024-01-11T05:07:31.853Z,100057.25
2024-01-11T05:09:58.611Z,100061.63
2024-01-11T05:12:25.469Z,100066.09
2024-01-11T05:14:52.225Z,100069.88
2024-01-11T05:17:18.992Z,100067.22
2024-01-11T05:19:45.815Z,100074.50
2024-01-11T05:22:12.603Z,100079.00
2024-01-11T05:24:39.320Z,100072.81
2024-01-11T05:27:06.164Z,100078.41
2024-01-11T05:29:33.313Z,100071.25
2024-01-11T05:32:00.174Z,100077.44
2024-01-11T05:34:27.075Z,100078.41
2024-01-11T05:36:53.814Z,100080.38
2024-01-11T05:39:20.492Z,100078.69
2024-01-11T05:41:47.274Z,100083.16
2024-01-11T05:44:14.462Z,100083.16
2024-01-11T05:46:41.132Z,100082.31
2024-01-11T05:49:08.759Z,100078.69
2024-01-11T05:51:35.535Z,100082.06
2024-01-11T05:54:02.196Z,100091.75
2024-01-11T05:56:29.001Z,100094.41
2024-01-11T05:58:55.856Z,100091.03
2024-01-11T06:01:22.828Z,100092.00
2024-01-11T06:03:49.734Z,100095.53
2024-01-11T06:06:16.580Z,100107.03
2024-01-11T06:08:44.871Z,100107.03
2024-01-11T06:11:11.780Z,100098.91
2024-01-11T06:13:38.478Z,100098.38
2024-01-11T06:16:05.238Z,100112.31
2024-01-11T06:18:32.242Z,100107.69
2024-01-11T06:20:59.015Z,100111.06
2024-01-11T06:23:26.917Z,100124.41
2024-01-11T06:25:53.872Z,100126.94
2024-01-11T06:28:20.597Z,100132.28
2024-01-11T06:30:47.341Z,100134.13
2024-01-11T06:33:14.312Z,100136.66
2024-01-11T06:35:41.368Z,100129.50
2024-01-11T06:38:09.096Z,100128.50
2024-01-11T06:40:35.947Z,100131.31
2024-01-11T06:43:02.641Z,100138.94
2024-01-11T06:45:29.373Z,100132.75
2024-01-11T06:47:56.306Z,100143.41
2024-01-11T06:50:23.279Z,100147.91
2024-01-11T06:52:49.963Z,100147.78
2024-01-11T06:55:16.971Z,100157.59
2024-01-11T06:57:43.654Z,100167.31
2024-01-11T07:00:11.378Z,100161.97
2024-01-11T07:02:38.202Z,100165.34
2024-01-11T07:05:05.264Z,100163.41
2024-01-11T07:07:31.987Z,100167.03
2024-01-11T07:09:58.774Z,100169.72
2024-01-11T07:12:26.688Z,100167.03
2024-01-11T07:14:53.430Z,100166.06
2024-01-11T07:17:20.253Z,100170.44
2024-01-11T07:19:47.017Z,100167.63
2024-01-11T07:22:13.826Z,100184.50
2024-01-11T07:24:40.609Z,100180.00
2024-01-11T07:27:08.212Z,100188.84
2024-01-11T07:29:35.065Z,100191.25
2024-01-11T07:32:02.078Z,100190.28
2024-01-11T07:34:29.535Z,100190.03
2024-01-11T07:36:57.711Z,100193.53
2024-01-11T07:39:25.667Z,100190.75
2024-01-11T07:41:52.538Z,100199.47
2024-01-11T07:44:19.731Z,100202.13
2024-01-11T07:46:52.600Z,100209.16
2024-01-11T07:49:21.774Z,100210.13
2024-01-11T07:51:48.797Z,100211.84
2024-01-11T07:54:15.553Z,100223.09
2024-01-11T07:56:42.414Z,100216.66
2024-01-11T07:59:09.236Z,100218.34
2024-01-11T08:01:36.773Z,100221.47
2024-01-11T08:04:04.279Z,100221.91
2024-01-11T08:06:31.786Z,100224.91
2024-01-11T08:08:58.612Z,100225.22
2024-01-11T08:11:26.132Z,100232.84
2024-01-11T08:13:56.014Z,100227.78
2024-01-11T08:16:22.845Z,100239.06
2024-01-11T08:18:50.362Z,100250.19
2024-01-11T08:21:17.213Z,100245.44
2024-01-11T08:23:46.632Z,100257.53
2024-01-11T08:26:15.457Z,100260.94
2024-01-11T08:28:43.186Z,100259.94
2024-01-11T08:31:10.120Z,100265.88
2024-01-11T08:33:40.047Z,100265.75
2024-01-11T08:36:08.275Z,100261.09
2024-01-11T08:38:36.874Z,100262.81
2024-01-11T08:41:04.731Z,100265.47
2024-01-11T08:43:31.689Z,100273.34
2024-01-11T08:45:58.380Z,100270.56
2024-01-11T08:48:25.374Z,100271.97
2024-01-11T08:50:52.345Z,100273.66
2024-01-11T08:53:19.142Z,100279.59
2024-01-11T08:55:47.374Z,100275.81
2024-01-11T08:58:14.740Z,100282.72
2024-01-11T09:00:41.673Z,100285.97
2024-01-11T09:03:08.769Z,100278.66
2024-01-11T09:05:35.723Z,100289.09
2024-01-11T09:08:02.589Z,100291.34
2024-01-11T09:10:29.309Z,100295.31
2024-01-11T09:12:56.234Z,100289.72
2024-01-11T09:15:23.080Z,100296.50
2024-01-11T09:17:50.814Z,100292.56
2024-01-11T09:20:18.139Z,100294.41
2024-01-11T09:22:45.005Z,100294.25
2024-01-11T09:25:11.683Z,100301.31
2024-01-11T09:27:38.400Z,100296.81
2024-01-11T09:30:05.857Z,100293.16
2024-01-11T09:32:32.884Z,100299.03
2024-01-11T09:35:00.006Z,100298.63
2024-01-11T09:37:27.130Z,100294.56
2024-01-11T09:39:54.130Z,100299.38
2024-01-11T09:42:20.823Z,100302.75
2024-01-11T09:44:48.007Z,100304.03
2024-01-11T09:47:18.992Z,100316.00
2024-01-11T09:49:46.965Z,100313.75
2024-01-11T09:52:16.014Z,100307.84
2024-01-11T09:54:43.093Z,100318.72
2024-01-11T09:57:10.884Z,100321.69
2024-01-11T09:59:38.154Z,100331.56
2024-01-11T10:02:09.508Z,100335.50
2024-01-11T10:04:36.856Z,100332.41
2024-01-11T10:07:07.381Z,100338.06
2024-01-11T10:09:34.452Z,100334.50
2024-01-11T10:12:01.192Z,100347.06
2024-01-11T10:14:28.041Z,100334.06
2024-01-11T10:16:56.172Z,100338.56
2024-01-11T10:19:23.325Z,100343.59
2024-01-11T10:21:50.187Z,100342.50
2024-01-11T10:24:21.917Z,100332.69
2024-01-11T10:26:49.031Z,100336.59
2024-01-11T10:29:15.895Z,100341.38
2024-01-11T10:31:42.628Z,100335.09
2024-01-11T10:34:09.912Z,100329.56
2024-01-11T10:36:37.578Z,100332.56
2024-01-11T10:39:08.709Z,100316.75
2024-01-11T10:41:44.074Z,100319.91
2024-01-11T10:44:22.758Z,100319.97
2024-01-11T10:46:57.212Z,100318.81
2024-01-11T10:49:26.607Z,100308.59
2024-01-11T10:52:01.734Z,100313.06
2024-01-11T10:54:30.066Z,100314.81
2024-01-11T10:57:00.340Z,100310.66
2024-01-11T10:59:28.184Z,100313.19
2024-01-11T11:01:57.460Z,100311.19
2024-01-11T11:04:24.845Z,100305.81
2024-01-11T11:06:58.404Z,100304.44
2024-01-11T11:09:26.897Z,100311.50
2024-01-11T11:11:59.777Z,100314.50
2024-01-11T11:14:26.800Z,100313.50
2024-01-11T11:16:54.265Z,100321.72
2024-01-11T11:19:21.950Z,100314.19
2024-01-11T11:21:49.728Z,100310.34
2024-01-11T11:24:20.369Z,100303.97
2024-01-11T11:26:47.810Z,100299.59
2024-01-11T11:29:16.739Z,100306.97
2024-01-11T11:31:44.881Z,100318.25
2024-01-11T11:34:15.463Z,100302.34
2024-01-11T11:36:43.707Z,100293.16
2024-01-11T11:39:14.828Z,100292.19
2024-01-11T11:41:43.873Z,100291.56
2024-01-11T11:44:16.769Z,100296.47
2024-01-11T11:46:45.110Z,100289.22
2024-01-11T11:49:12.377Z,100289.44
2024-01-11T11:51:42.311Z,100285.94
2024-01-11T11:54:15.944Z,100284.97
2024-01-11T11:56:43.519Z,100293.09
2024-01-11T11:59:10.898Z,100283.38
2024-01-11T12:01:39.828Z,100294.13
2024-01-11T12:04:09.093Z,100291.59
2024-01-11T12:06:36.044Z,100283.38
2024-01-11T12:09:02.821Z,100278.50
2024-01-11T12:11:30.515Z,100289.09
2024-01-11T12:13:59.295Z,100284.41
2024-01-11T12:16:26.218Z,100284.56
2024-01-11T12:18:53.135Z,100282.72
2024-01-11T12:21:21.232Z,100277.34
2024-01-11T12:23:50.131Z,100275.31
2024-01-11T12:26:23.991Z,100274.00
2024-01-11T12:28:51.714Z,100268.59
2024-01-11T12:31:20.391Z,100262.22
2024-01-11T12:33:47.459Z,100268.16
2024-01-11T12:36:14.232Z,100253.50
2024-01-11T12:38:49.926Z,100254.50
2024-01-11T12:41:19.266Z,100259.56
2024-01-11T12:43:46.108Z,100258.91
2024-01-11T12:46:12.891Z,100258.91
2024-01-11T12:48:40.102Z,100265.28
2024-01-11T12:51:14.410Z,100259.69
2024-01-11T12:53:48.053Z,100259.69
2024-01-11T12:56:16.625Z,100250.09
2024-01-11T12:58:44.081Z,100252.78
2024-01-11T13:01:11.960Z,100246.38
2024-01-11T13:03:40.326Z,100256.16
2024-01-11T13:06:07.712Z,100259.84
2024-01-11T13:08:37.765Z,100256.63
2024-01-11T13:11:08.325Z,100263.88
2024-01-11T13:13:38.646Z,100262.84
2024-01-11T13:16:12.558Z,100259.94
2024-01-11T13:18:39.721Z,100263.44
2024-01-11T13:21:08.050Z,100268.09
2024-01-11T13:23:35.136Z,100261.53
2024-01-11T13:26:03.536Z,100259.16
2024-01-11T13:28:30.529Z,100259.63
2024-01-11T13:30:58.176Z,100260.94
2024-01-11T13:33:25.343Z,100256.06
2024-01-11T13:35:52.441Z,100259.91
2024-01-11T13:38:21.644Z,100250.50
2024-01-11T13:40:50.804Z,100259.03
2024-01-11T13:43:18.481Z,100257.84
2024-01-11T13:45:46.083Z,100262.16
2024-01-11T13:48:12.957Z,100254.03
2024-01-11T13:50:39.873Z,100257.28
2024-01-11T13:53:07.634Z,100257.84
2024-01-11T13:55:41.356Z,100264.78
2024-01-11T13:58:09.190Z,100265.00
2024-01-11T14:00:36.327Z,100265.31
2024-01-11T14:03:04.885Z,100267.66
2024-01-11T14:05:31.975Z,100272.34
2024-01-11T14:08:00.764Z,100269.97
2024-01-11T14:10:28.500Z,100277.00
2024-01-11T14:12:55.703Z,100282.38
2024-01-11T14:15:22.592Z,100274.34
2024-01-11T14:17:51.464Z,100274.34
2024-01-11T14:20:18.905Z,100274.72
2024-01-11T14:22:50.340Z,100281.44
2024-01-11T14:25:19.000Z,100280.63
2024-01-11T14:27:46.004Z,100279.78
2024-01-11T14:30:14.826Z,100283.78
2024-01-11T14:32:44.962Z,100276.72
2024-01-11T14:35:12.511Z,100288.44
2024-01-11T14:37:41.161Z,100285.22
2024-01-11T14:40:12.090Z,100292.34
2024-01-11T14:42:39.045Z,100291.97
2024-01-11T14:45:06.752Z,100299.78
2024-01-11T14:47:33.951Z,100289.34
2024-01-11T14:50:01.028Z,100296.25
2024-01-11T14:52:27.757Z,100298.94
2024-01-11T14:54:54.519Z,100298.78
2024-01-11T14:57:22.359Z,100305.00
2024-01-11T14:59:49.433Z,100305.84
2024-01-11T15:02:16.993Z,100293.25
2024-01-11T15:04:43.803Z,100298.63
2024-01-11T15:07:10.692Z,100304.69
2024-01-11T15:09:40.001Z,100302.69
2024-01-11T15:12:08.335Z,100304.53
2024-01-11T15:14:35.268Z,100310.75
2024-01-11T15:17:03.667Z,100303.69
2024-01-11T15:19:31.238Z,100311.59
2024-01-11T15:21:57.988Z,100300.03
2024-01-11T15:24:24.696Z,100300.72
2024-01-11T15:26:51.630Z,100299.72
2024-01-11T15:29:18.763Z,100304.25
2024-01-11T15:31:50.632Z,100316.66
2024-01-11T15:34:17.654Z,100305.09
2024-01-11T15:36:44.809Z,100314.13
2024-01-11T15:39:21.165Z,100320.97
2024-01-11T15:41:58.532Z,100313.06
2024-01-11T15:44:27.963Z,100317.66
2024-01-11T15:46:56.244Z,100311.50
2024-01-11T15:49:23.816Z,100318.44
2024-01-11T15:51:50.594Z,100319.19
2024-01-11T15:54:17.322Z,100322.16
2024-01-11T15:56:44.153Z,100325.84
2024-01-11T15:59:10.971Z,100315.25
2024-01-11T16:01:50.330Z,100321.47
2024-01-11T16:04:24.098Z,100313.72
2024-01-11T16:06:51.196Z,100315.00
2024-01-11T16:09:18.125Z,100315.84
2024-01-11T16:11:46.251Z,100307.97
2024-01-11T16:14:13.048Z,100308.25
2024-01-11T16:16:39.789Z,100306.56
2024-01-11T16:19:06.716Z,100315.59
2024-01-11T16:21:33.693Z,100321.25
2024-01-11T16:24:03.113Z,100317.88
2024-01-11T16:26:30.675Z,100314.50
2024-01-11T16:28:58.143Z,100307.44
2024-01-11T16:31:25.138Z,100308.59
2024-01-11T16:33:51.893Z,100311.41
2024-01-11T16:36:19.141Z,100311.72
2024-01-11T16:38:46.414Z,100324.69
2024-01-11T16:41:13.541Z,100327.69
2024-01-11T16:43:40.994Z,100311.31
2024-01-11T16:46:08.819Z,100323.47
2024-01-11T16:48:35.839Z,100319.38
2024-01-11T16:51:02.957Z,100326.16
2024-01-11T16:53:29.760Z,100322.91
2024-01-11T16:55:56.679Z,100334.91
2024-01-11T16:58:23.445Z,100328.16
2024-01-11T17:00:50.250Z,100334.78
2024-01-11T17:03:17.489Z,100343.09
2024-01-11T17:05:44.510Z,100334.50
2024-01-11T17:08:11.312Z,100340.28
2024-01-11T17:10:39.314Z,100346.91
2024-01-11T17:13:06.068Z,100355.22
2024-01-11T17:15:33.224Z,100364.25
2024-01-11T17:18:00.282Z,100362.75
2024-01-11T17:20:27.205Z,100354.84
2024-01-11T17:22:55.161Z,100359.50
2024-01-11T17:25:22.563Z,100356.94
2024-01-11T17:27:49.500Z,100358.78
2024-01-11T17:30:16.547Z,100362.44
2024-01-11T17:32:43.580Z,100355.53
2024-01-11T17:35:10.563Z,100361.75
2024-01-11T17:37:37.585Z,100363.84
2024-01-11T17:40:08.229Z,100369.34
2024-01-11T17:42:35.146Z,100382.03
2024-01-11T17:45:02.348Z,100384.00
2024-01-11T17:47:29.567Z,100384.00
2024-01-11T17:49:56.412Z,100379.78
2024-01-11T17:52:23.122Z,100385.97
2024-01-11T17:54:49.903Z,100391.31
2024-01-11T17:57:16.570Z,100400.63
2024-01-11T17:59:46.400Z,100400.91
2024-01-11T18:02:13.297Z,100400.91
2024-01-11T18:04:42.260Z,100397.50
2024-01-11T18:07:09.138Z,100401.16
2024-01-11T18:09:36.581Z,100404.84
2024-01-11T18:12:03.503Z,100401.16
2024-01-11T18:14:30.228Z,100405.69
2024-01-11T18:16:57.002Z,100413.84
2024-01-11T18:19:23.977Z,100418.63
2024-01-11T18:21:50.744Z,100421.44
2024-01-11T18:24:18.663Z,100411.56
2024-01-11T18:26:45.538Z,100419.75
2024-01-11T18:29:12.440Z,100421.00
2024-01-11T18:31:39.962Z,100419.31
2024-01-11T18:34:07.278Z,100415.91
2024-01-11T18:36:44.943Z,100415.47
2024-01-11T18:39:11.747Z,100424.50
2024-01-11T18:41:38.926Z,100426.59
2024-01-11T18:44:05.773Z,100431.38
2024-01-11T18:46:32.581Z,100428.97
2024-01-11T18:48:59.436Z,100433.59
2024-01-11T18:51:27.461Z,100444.56
2024-01-11T18:53:55.096Z,100426.09
2024-01-11T18:56:21.864Z,100443.28
2024-01-11T18:58:48.558Z,100437.34
2024-01-11T19:01:15.260Z,100440.28
2024-01-11T19:03:42.093Z,100437.75
2024-01-11T19:06:09.245Z,100443.34
2024-01-11T19:08:37.201Z,100434.78
2024-01-11T19:11:04.268Z,100437.59
2024-01-11T19:13:31.039Z,100438.84
2024-01-11T19:15:57.758Z,100432.19
2024-01-11T19:18:24.759Z,100436.81
2024-01-11T19:20:54.800Z,100440.59
2024-01-11T19:23:26.750Z,100436.34
2024-01-11T19:25:57.561Z,100445.59
2024-01-11T19:28:25.194Z,100446.59
2024-01-11T19:30:52.505Z,100443.91
2024-01-11T19:33:19.563Z,100445.00
2024-01-11T19:35:46.641Z,100446.13
2024-01-11T19:38:13.845Z,100458.50
2024-01-11T19:40:43.539Z,100457.53
2024-01-11T19:43:10.533Z,100461.91
2024-01-11T19:45:37.542Z,100461.91
2024-01-11T19:48:05.207Z,100461.91
2024-01-11T19:50:34.414Z,100467.00
2024-01-11T19:53:01.913Z,100471.50
2024-01-11T19:55:28.643Z,100481.34
2024-01-11T19:57:55.409Z,100477.69
2024-01-11T20:00:22.971Z,100480.38
2024-01-11T20:02:50.779Z,100478.66
2024-01-11T20:05:17.591Z,100479.78
2024-01-11T20:07:44.795Z,100483.31
2024-01-11T20:10:12.511Z,100486.94
2024-01-11T20:12:39.449Z,100489.38
2024-01-11T20:15:08.524Z,100496.53
2024-01-11T20:17:35.438Z,100485.97
2024-01-11T20:20:02.380Z,100485.00
2024-01-11T20:22:29.336Z,100484.28
2024-01-11T20:24:56.302Z,100489.50
2024-01-11T20:27:23.621Z,100487.94
2024-01-11T20:29:50.544Z,100481.59
2024-01-11T20:32:17.663Z,100483.03
2024-01-11T20:34:44.798Z,100486.31
2024-01-11T20:37:11.805Z,100493.22
2024-01-11T20:39:39.308Z,100497.63
2024-01-11T20:42:06.427Z,100498.34
2024-01-11T20:44:36.694Z,100487.38
2024-01-11T20:47:04.563Z,100492.47
2024-01-11T20:49:31.407Z,100485.28
2024-01-11T20:52:00.442Z,100493.31
2024-01-11T20:54:27.760Z,100487.25
2024-01-11T20:56:56.153Z,100487.38
2024-01-11T20:59:23.176Z,100493.00
2024-01-11T21:01:50.149Z,100489.81
2024-01-11T21:04:16.889Z,100490.94
2024-01-11T21:06:45.318Z,100486.69
2024-01-11T21:09:13.678Z,100498.50
2024-01-11T21:11:41.749Z,100493.41
2024-01-11T21:14:08.958Z,100497.19
2024-01-11T21:16:35.783Z,100482.38
2024-01-11T21:19:06.444Z,100478.00
2024-01-11T21:21:34.202Z,100491.50
2024-01-11T21:24:02.593Z,100494.19
2024-01-11T21:26:29.629Z,100493.59
2024-01-11T21:28:57.143Z,100501.88
2024-01-11T21:31:28.771Z,100507.59
2024-01-11T21:33:55.969Z,100509.69
2024-01-11T21:36:25.901Z,100513.44
2024-01-11T21:38:56.002Z,100523.69
2024-01-11T21:41:23.989Z,100522.34
2024-01-11T21:43:52.266Z,100526.25
2024-01-11T21:46:27.009Z,100520.56
2024-01-11T21:48:54.393Z,100528.13
2024-01-11T21:51:21.220Z,100533.13
2024-01-11T21:53:47.957Z,100537.88
2024-01-11T21:56:14.821Z,100528.41
2024-01-11T21:58:42.014Z,100536.81
2024-01-11T22:01:08.835Z,100525.41
2024-01-11T22:03:37.041Z,100516.66
2024-01-11T22:06:04.880Z,100527.34
2024-01-11T22:08:32.047Z,100530.13
2024-01-11T22:10:58.918Z,100518.59
2024-01-11T22:13:25.631Z,100519.81
2024-01-11T22:15:52.621Z,100521.75
2024-01-11T22:18:19.496Z,100515.69
2024-01-11T22:20:46.527Z,100522.88
2024-01-11T22:23:13.322Z,100528.06
2024-01-11T22:25:40.173Z,100533.53
2024-01-11T22:28:06.920Z,100534.50
2024-01-11T22:30:34.409Z,100529.19
2024-01-11T22:33:02.889Z,100522.25
2024-01-11T22:35:29.779Z,100526.63
2024-01-11T22:37:56.567Z,100532.81
2024-01-11T22:40:23.412Z,100521.41
2024-01-11T22:42:50.090Z,100530.28
2024-01-11T22:45:16.846Z,100525.91
2024-01-11T22:47:43.594Z,100521.53
2024-01-11T22:50:10.745Z,100527.84
2024-01-11T22:52:37.960Z,100529.66
2024-01-11T22:55:05.718Z,100521.78
2024-01-11T22:57:33.093Z,100527.13
2024-01-11T22:59:59.825Z,100526.16
2024-01-11T23:02:27.233Z,100520.94
2024-01-11T23:04:54.088Z,100523.47
2024-01-11T23:07:20.778Z,100518.13
2024-01-11T23:09:47.628Z,100515.47
2024-01-11T23:12:14.356Z,100519.84
2024-01-11T23:14:41.229Z,100525.19
2024-01-11T23:17:07.891Z,100521.53
2024-01-11T23:19:34.823Z,100517.03
2024-01-11T23:22:01.636Z,100517.16
2024-01-11T23:24:28.342Z,100514.50
2024-01-11T23:26:55.327Z,100506.50
2024-01-11T23:29:22.221Z,100511.94
2024-01-11T23:31:49.416Z,100497.03
2024-01-11T23:34:16.428Z,100504.31
2024-01-11T23:36:43.385Z,100502.59
2024-01-11T23:39:10.054Z,100508.06
2024-01-11T23:41:36.809Z,100506.25
2024-01-11T23:44:03.662Z,100507.34
2024-01-11T23:46:30.494Z,100509.16
2024-01-11T23:48:57.410Z,100508.19
2024-01-11T23:51:24.424Z,100501.88
2024-01-11T23:53:51.351Z,100509.91
2024-01-11T23:56:18.179Z,100504.56
2024-01-11T23:58:44.944Z,100491.22
